Time;durP1;ratioP1;P1;durP2;ratioP2;P2;SDS_P1;SDS_P2;PMS_P1;PMS_P2;Temp;Humidity;BMP_temperature;BMP_pressure;BME280_temperature;BME280_humidity;BME280_pressure;Samples;Min_cycle;Max_cycle;Signal;HPM_P1;HPM_P2
2022/01/27 00:04:07;;;;;;;7.72;4.93;;;;;;;;;;5068546;28;20131;-66
2022/01/27 00:06:35;;;;;;;7.00;4.63;;;;;;;;;;5068195;28;20153;-65
2022/01/27 00:09:12;;;;;;;9.32;5.25;;;;;;;;;;5067813;28;20485;-67
2022/01/27 00:11:42;;;;;;;10.35;5.22;;;;;;;;;;5066751;28;20056;-66
2022/01/27 00:14:10;;;;;;;8.70;5.18;;;;;;;;;;5067534;28;20048;-67
2022/01/27 00:16:41;;;;;;;7.47;5.05;;;;;;;;;;5066703;28;20375;-67
2022/01/27 00:19:07;;;;;;;7.65;5.15;;;;;;;;;;5068468;28;20110;-67
2022/01/27 00:21:33;;;;;;;8.20;5.07;;;;;;;;;;5067048;28;20091;-68
2022/01/27 00:23:59;;;;;;;6.25;4.70;;;;;;;;;;5068502;28;20044;-66
2022/01/27 00:26:25;;;;;;;6.93;4.78;;;;;;;;;;5068608;28;20194;-67
2022/01/27 00:28:51;;;;;;;6.93;4.60;;;;;;;;;;5067785;28;20363;-67
2022/01/27 00:31:19;;;;;;;7.10;4.88;;;;;;;;;;5066818;28;20063;-68
2022/01/27 00:33:45;;;;;;;6.43;4.40;;;;;;;;;;5066942;28;20060;-68
2022/01/27 00:36:11;;;;;;;8.20;5.38;;;;;;;;;;5050130;28;20526;-68
2022/01/27 00:38:37;;;;;;;7.30;5.10;;;;;;;;;;5066766;28;20139;-68
2022/01/27 00:41:04;;;;;;;6.25;4.55;;;;;;;;;;5066298;28;20414;-67
2022/01/27 00:43:30;;;;;;;8.90;5.05;;;;;;;;;;5068216;28;20048;-68
2022/01/27 00:45:56;;;;;;;6.97;4.43;;;;;;;;;;5068020;28;20512;-68
2022/01/27 00:48:23;;;;;;;6.50;4.40;;;;;;;;;;5067627;28;20650;-68
2022/01/27 00:50:54;;;;;;;9.93;4.97;;;;;;;;;;5067996;28;20465;-68
2022/01/27 00:53:41;;;;;;;7.47;5.20;;;;;;;;;;5067927;28;20414;-68
2022/01/27 00:56:26;;;;;;;6.10;4.50;;;;;;;;;;5067963;28;20053;-68
2022/01/27 00:59:04;;;;;;;6.97;4.82;;;;;;;;;;5067455;28;20051;-68
2022/01/27 01:01:37;;;;;;;7.47;4.93;;;;;;;;;;5068074;28;20049;-68
2022/01/27 01:04:06;;;;;;;6.65;4.53;;;;;;;;;;5067879;28;20088;-67
2022/01/27 01:14:34;;;;;;;11.57;5.10;;;;;;;;;;5067573;28;20045;-68
2022/01/27 01:19:56;;;;;;;10.05;4.60;;;;;;;;;;5068195;28;20075;-68
2022/01/27 01:33:10;;;;;;;8.15;4.93;;;;;;;;;;5071620;28;20119;-66
2022/01/27 01:35:50;;;;;;;7.90;4.63;;;;;;;;;;5071687;28;20036;-66
2022/01/27 01:38:18;;;;;;;7.38;5.05;;;;;;;;;;5071141;28;20135;-66
2022/01/27 01:40:46;;;;;;;7.15;4.35;;;;;;;;;;5071356;28;20123;-67
2022/01/27 01:43:12;;;;;;;9.48;4.65;;;;;;;;;;5071487;28;20043;-67
2022/01/27 01:45:38;;;;;;;6.40;4.30;;;;;;;;;;5071569;28;20135;-66
2022/01/27 01:48:04;;;;;;;9.35;4.40;;;;;;;;;;5069935;28;20074;-67
2022/01/27 01:50:30;;;;;;;7.25;4.78;;;;;;;;;;5071429;28;20036;-67
2022/01/27 01:52:56;;;;;;;7.47;4.65;;;;;;;;;;5070751;28;20041;-67
2022/01/27 01:55:23;;;;;;;7.03;4.43;;;;;;;;;;5069678;28;20060;-66
2022/01/27 01:57:50;;;;;;;8.32;4.60;;;;;;;;;;5071232;28;20048;-67
2022/01/27 02:00:16;;;;;;;7.10;4.05;;;;;;;;;;5070464;28;20131;-66
2022/01/27 02:02:43;;;;;;;7.35;4.60;;;;;;;;;;5070781;28;20040;-66
2022/01/27 02:05:09;;;;;;;6.85;4.70;;;;;;;;;;5068925;28;20059;-66
2022/01/27 02:07:48;;;;;;;5.82;4.00;;;;;;;;;;5070344;28;20040;-66
2022/01/27 02:10:32;;;;;;;7.13;4.75;;;;;;;;;;5069944;28;20094;-66
2022/01/27 02:18:28;;;;;;;7.20;4.90;;;;;;;;;;5070083;28;20078;-66
2022/01/27 02:20:54;;;;;;;6.68;4.65;;;;;;;;;;5070134;28;20133;-66
2022/01/27 02:23:20;;;;;;;7.00;4.63;;;;;;;;;;5068548;28;20052;-66
2022/01/27 02:25:46;;;;;;;7.28;4.57;;;;;;;;;;5069814;28;20045;-66
2022/01/27 02:28:13;;;;;;;6.72;4.70;;;;;;;;;;5069991;28;20410;-66
2022/01/27 02:30:39;;;;;;;7.10;4.05;;;;;;;;;;5070084;28;20049;-66
2022/01/27 02:33:05;;;;;;;7.82;4.88;;;;;;;;;;5068386;28;20056;-66
2022/01/27 02:35:33;;;;;;;7.80;4.72;;;;;;;;;;5069737;28;20393;-65
2022/01/27 02:37:59;;;;;;;7.00;4.55;;;;;;;;;;5069692;28;20036;-65
2022/01/27 02:40:34;;;;;;;6.93;4.78;;;;;;;;;;5068798;28;20121;-67
2022/01/27 02:43:02;;;;;;;7.00;4.43;;;;;;;;;;5069775;28;20048;-68
2022/01/27 02:45:32;;;;;;;7.57;4.53;;;;;;;;;;5052037;28;20052;-67
2022/01/27 02:47:58;;;;;;;8.02;4.82;;;;;;;;;;5070258;28;20044;-67
2022/01/27 02:50:24;;;;;;;7.28;4.68;;;;;;;;;;5070255;28;20045;-67
2022/01/27 02:52:50;;;;;;;7.82;5.05;;;;;;;;;;5069578;28;20052;-67
2022/01/27 02:55:17;;;;;;;6.53;4.63;;;;;;;;;;5070067;28;20144;-67
2022/01/27 02:57:43;;;;;;;6.95;4.53;;;;;;;;;;5052234;28;20048;-67
2022/01/27 03:00:09;;;;;;;6.22;4.13;;;;;;;;;;5069919;28;20483;-67
2022/01/27 03:02:36;;;;;;;6.78;4.22;;;;;;;;;;5069744;28;20045;-67
2022/01/27 03:05:02;;;;;;;7.90;4.50;;;;;;;;;;5069330;28;20271;-67
2022/01/27 03:07:28;;;;;;;7.75;4.85;;;;;;;;;;5068746;28;20078;-66
2022/01/27 03:09:54;;;;;;;7.55;4.95;;;;;;;;;;5069851;28;20131;-67
2022/01/27 03:12:24;;;;;;;6.45;4.22;;;;;;;;;;5068163;28;20055;-67
2022/01/27 03:14:50;;;;;;;6.20;4.38;;;;;;;;;;5068208;28;20117;-67
2022/01/27 03:17:17;;;;;;;5.97;4.32;;;;;;;;;;5067731;28;20132;-68
2022/01/27 03:19:43;;;;;;;9.63;5.18;;;;;;;;;;5069442;28;20135;-67
2022/01/27 03:22:10;;;;;;;8.80;5.20;;;;;;;;;;5069425;28;20052;-67
2022/01/27 03:24:36;;;;;;;7.80;4.43;;;;;;;;;;5069454;28;20436;-67
2022/01/27 03:27:03;;;;;;;6.30;4.32;;;;;;;;;;5068833;28;20074;-67
2022/01/27 03:29:29;;;;;;;7.95;5.40;;;;;;;;;;5067991;28;20727;-67
2022/01/27 03:31:56;;;;;;;6.55;4.47;;;;;;;;;;5068832;28;20091;-67
2022/01/27 03:34:22;;;;;;;6.78;4.22;;;;;;;;;;5069277;28;20190;-67
2022/01/27 03:36:49;;;;;;;7.07;4.65;;;;;;;;;;5069071;28;20044;-67
2022/01/27 03:39:18;;;;;;;5.82;4.38;;;;;;;;;;5067484;28;20048;-67
2022/01/27 03:41:51;;;;;;;7.13;4.65;;;;;;;;;;5069189;28;20155;-68
2022/01/27 03:44:21;;;;;;;7.30;4.70;;;;;;;;;;5067625;28;20549;-68
2022/01/27 03:46:48;;;;;;;8.52;5.20;;;;;;;;;;5067788;28;20078;-66
2022/01/27 03:49:15;;;;;;;8.38;4.80;;;;;;;;;;5068041;28;20072;-66
2022/01/27 03:51:41;;;;;;;13.98;5.10;;;;;;;;;;5067529;28;20504;-66
2022/01/27 03:54:07;;;;;;;8.07;4.97;;;;;;;;;;5067598;28;20157;-66
2022/01/27 03:56:33;;;;;;;11.95;4.60;;;;;;;;;;5068523;28;20045;-67
2022/01/27 03:58:59;;;;;;;11.25;5.13;;;;;;;;;;5068713;28;20048;-68
2022/01/27 04:01:25;;;;;;;11.65;5.18;;;;;;;;;;5068659;28;20422;-67
2022/01/27 04:03:56;;;;;;;8.48;5.45;;;;;;;;;;5068723;28;20053;-67
2022/01/27 04:06:31;;;;;;;14.25;5.18;;;;;;;;;;5068493;28;20532;-67
2022/01/27 04:08:57;;;;;;;10.23;5.13;;;;;;;;;;5068622;28;20067;-67
2022/01/27 04:11:23;;;;;;;11.38;5.32;;;;;;;;;;5068933;28;20054;-66
2022/01/27 04:13:49;;;;;;;8.38;5.40;;;;;;;;;;5068299;28;20066;-66
2022/01/27 04:16:15;;;;;;;8.32;5.13;;;;;;;;;;5067242;28;20458;-66
2022/01/27 04:18:41;;;;;;;9.68;5.20;;;;;;;;;;5068790;28;20171;-66
2022/01/27 04:21:07;;;;;;;13.90;5.50;;;;;;;;;;5067383;28;20048;-66
2022/01/27 04:23:33;;;;;;;11.23;5.25;;;;;;;;;;5068457;28;20133;-66
2022/01/27 04:26:00;;;;;;;9.80;5.35;;;;;;;;;;5068024;28;20044;-66
2022/01/27 04:28:28;;;;;;;7.65;4.95;;;;;;;;;;5068513;28;20081;-66
2022/01/27 04:30:56;;;;;;;11.98;5.65;;;;;;;;;;5066928;28;20049;-66
2022/01/27 04:33:28;;;;;;;12.23;5.40;;;;;;;;;;5067624;28;20060;-67
2022/01/27 04:35:58;;;;;;;9.85;5.30;;;;;;;;;;5068371;28;20075;-66
2022/01/27 04:41:22;;;;;;;8.85;4.90;;;;;;;;;;5068035;28;20082;-67
2022/01/27 04:48:56;;;;;;;9.23;5.80;;;;;;;;;;5066599;28;20120;-67
2022/01/27 04:51:23;;;;;;;8.43;5.10;;;;;;;;;;5068032;28;20543;-66
2022/01/27 04:54:28;;;;;;;7.78;5.28;;;;;;;;;;5067782;28;20053;-67
2022/01/27 04:56:42;;;;;;;9.10;5.75;;;;;;;;;;5064295;28;20040;-66
2022/01/27 04:59:18;;;;;;;7.65;5.30;;;;;;;;;;5067289;28;20429;-66
2022/01/27 05:01:52;;;;;;;8.60;5.30;;;;;;;;;;5068268;28;20053;-67
2022/01/27 05:04:20;;;;;;;8.80;5.60;;;;;;;;;;5067941;28;20521;-66
2022/01/27 05:06:49;;;;;;;13.90;5.00;;;;;;;;;;5067626;28;20048;-66
2022/01/27 05:09:15;;;;;;;9.50;5.43;;;;;;;;;;5067952;28;20056;-66
2022/01/27 05:12:11;;;;;;;10.70;5.22;;;;;;;;;;5067924;28;20110;-67
2022/01/27 05:14:30;;;;;;;8.85;5.50;;;;;;;;;;5067346;28;20422;-66
2022/01/27 05:16:56;;;;;;;7.38;4.85;;;;;;;;;;5067709;28;20043;-67
2022/01/27 05:19:22;;;;;;;9.02;5.15;;;;;;;;;;5067949;28;20127;-66
2022/01/27 05:21:48;;;;;;;8.25;5.35;;;;;;;;;;5066239;28;20045;-66
2022/01/27 05:24:14;;;;;;;8.13;4.75;;;;;;;;;;5068028;28;20048;-66
2022/01/27 05:26:40;;;;;;;6.35;4.70;;;;;;;;;;5067804;28;20044;-66
2022/01/27 05:29:09;;;;;;;7.70;5.10;;;;;;;;;;5066902;28;20171;-66
2022/01/27 05:31:35;;;;;;;7.18;4.63;;;;;;;;;;5066428;28;20059;-66
2022/01/27 05:34:01;;;;;;;7.18;5.43;;;;;;;;;;5067435;28;20056;-66
2022/01/27 05:36:27;;;;;;;8.07;4.68;;;;;;;;;;5067496;28;20060;-66
2022/01/27 05:38:53;;;;;;;8.82;5.22;;;;;;;;;;5066495;28;20052;-67
2022/01/27 05:41:19;;;;;;;9.40;5.55;;;;;;;;;;5066685;28;20056;-65
2022/01/27 05:43:45;;;;;;;8.85;5.07;;;;;;;;;;5065848;28;20048;-66
2022/01/27 05:46:11;;;;;;;7.32;4.85;;;;;;;;;;5066571;28;20091;-66
2022/01/27 05:48:37;;;;;;;8.18;4.85;;;;;;;;;;5067817;28;20040;-66
2022/01/27 05:51:04;;;;;;;8.02;4.93;;;;;;;;;;5067584;28;20048;-66
2022/01/27 05:53:30;;;;;;;7.70;5.03;;;;;;;;;;5067048;28;20059;-66
2022/01/27 05:55:59;;;;;;;8.00;4.47;;;;;;;;;;5067835;28;20044;-67
2022/01/27 05:58:26;;;;;;;7.05;4.47;;;;;;;;;;5068013;28;20056;-66
2022/01/27 06:00:53;;;;;;;6.10;4.45;;;;;;;;;;5066103;28;20048;-67
2022/01/27 06:03:19;;;;;;;9.43;5.20;;;;;;;;;;5066141;28;20080;-67
2022/01/27 06:05:45;;;;;;;6.63;4.15;;;;;;;;;;5067642;28;20071;-67
2022/01/27 06:08:11;;;;;;;7.10;4.53;;;;;;;;;;5067751;28;20044;-66
2022/01/27 06:10:37;;;;;;;6.85;4.45;;;;;;;;;;5071138;28;20048;-68
2022/01/27 06:13:03;;;;;;;17.13;5.20;;;;;;;;;;5070550;28;20056;-67
2022/01/27 06:15:29;;;;;;;9.13;4.65;;;;;;;;;;5071193;28;20137;-69
2022/01/27 06:17:55;;;;;;;13.95;5.45;;;;;;;;;;5070652;28;20447;-67
2022/01/27 06:20:21;;;;;;;8.60;4.97;;;;;;;;;;5069948;28;20459;-67
2022/01/27 06:22:47;;;;;;;9.32;4.88;;;;;;;;;;5070965;28;20045;-66
2022/01/27 06:25:14;;;;;;;10.55;4.88;;;;;;;;;;5070681;28;20452;-67
2022/01/27 06:27:41;;;;;;;7.43;5.03;;;;;;;;;;5070405;28;20041;-67
2022/01/27 06:30:12;;;;;;;;;;;;;;;;;;5071192;28;20060;-67
2022/01/27 06:32:39;;;;;;;7.00;4.57;;;;;;;;;;5070718;28;20035;-67
2022/01/27 06:35:05;;;;;;;10.32;5.10;;;;;;;;;;5069001;28;20406;-67
2022/01/27 06:37:32;;;;;;;9.30;4.97;;;;;;;;;;5068231;28;20425;-66
2022/01/27 06:39:58;;;;;;;8.38;4.65;;;;;;;;;;5069738;28;20348;-67
2022/01/27 06:42:24;;;;;;;7.47;4.85;;;;;;;;;;5070333;28;20040;-67
2022/01/27 06:44:50;;;;;;;9.82;4.93;;;;;;;;;;5069307;28;20052;-67
2022/01/27 06:47:16;;;;;;;8.40;4.85;;;;;;;;;;5070132;28;20051;-67
2022/01/27 06:49:43;;;;;;;8.77;5.05;;;;;;;;;;5070016;28;20101;-67
2022/01/27 06:52:09;;;;;;;10.70;4.50;;;;;;;;;;5068822;28;20040;-67
2022/01/27 06:54:35;;;;;;;6.68;4.22;;;;;;;;;;5070173;28;20470;-67
2022/01/27 06:57:01;;;;;;;9.32;5.45;;;;;;;;;;5068464;28;20123;-66
2022/01/27 06:59:28;;;;;;;9.23;4.28;;;;;;;;;;5068817;28;20052;-66
2022/01/27 07:01:54;;;;;;;8.25;4.32;;;;;;;;;;5068340;28;20055;-66
2022/01/27 07:04:20;;;;;;;7.13;4.43;;;;;;;;;;5069232;28;20040;-66
2022/01/27 07:06:47;;;;;;;7.47;4.10;;;;;;;;;;5070084;28;20052;-66
2022/01/27 07:09:13;;;;;;;7.18;4.38;;;;;;;;;;5070061;28;20488;-66
2022/01/27 07:11:39;;;;;;;9.30;4.30;;;;;;;;;;5068323;28;20409;-66
2022/01/27 07:14:05;;;;;;;9.95;5.22;;;;;;;;;;5068265;28;20098;-66
2022/01/27 07:16:33;;;;;;;6.55;4.03;;;;;;;;;;5069714;28;20053;-66
2022/01/27 07:18:59;;;;;;;7.97;4.30;;;;;;;;;;5069253;28;20044;-66
2022/01/27 07:21:25;;;;;;;8.02;4.25;;;;;;;;;;5069990;28;20048;-67
2022/01/27 07:23:51;;;;;;;6.45;3.83;;;;;;;;;;5069247;28;20413;-66
2022/01/27 07:26:24;;;;;;;7.78;3.88;;;;;;;;;;5069364;28;20036;-66
2022/01/27 07:28:50;;;;;;;7.22;4.00;;;;;;;;;;5068098;28;20530;-68
2022/01/27 07:31:16;;;;;;;7.32;4.13;;;;;;;;;;5068811;28;20468;-65
2022/01/27 07:33:42;;;;;;;8.52;4.53;;;;;;;;;;5068858;28;20040;-66
2022/01/27 07:36:08;;;;;;;7.95;4.47;;;;;;;;;;5068025;28;20055;-66
2022/01/27 07:38:35;;;;;;;6.50;4.43;;;;;;;;;;5069181;28;20505;-66
2022/01/27 07:41:01;;;;;;;10.20;4.30;;;;;;;;;;5069311;28;20428;-65
2022/01/27 07:43:27;;;;;;;9.65;4.47;;;;;;;;;;5067435;28;20085;-66
2022/01/27 07:45:53;;;;;;;6.05;3.83;;;;;;;;;;5068002;28;20557;-66
2022/01/27 07:48:19;;;;;;;8.10;4.47;;;;;;;;;;5069148;28;20528;-66
2022/01/27 07:50:46;;;;;;;5.60;3.95;;;;;;;;;;5069054;28;20083;-66
2022/01/27 07:53:12;;;;;;;6.00;4.00;;;;;;;;;;5068845;28;20049;-66
2022/01/27 07:55:38;;;;;;;5.97;3.95;;;;;;;;;;5068674;28;20059;-66
2022/01/27 07:58:04;;;;;;;7.10;4.18;;;;;;;;;;5050914;28;20579;-66
2022/01/27 08:00:30;;;;;;;7.00;4.10;;;;;;;;;;5068546;28;20040;-66
2022/01/27 08:02:56;;;;;;;6.88;4.35;;;;;;;;;;5068665;28;20102;-65
2022/01/27 08:05:22;;;;;;;9.18;4.32;;;;;;;;;;5068416;28;20117;-66
2022/01/27 08:07:48;;;;;;;6.88;3.97;;;;;;;;;;5068433;28;20143;-66
2022/01/27 08:10:14;;;;;;;6.20;4.10;;;;;;;;;;5068206;28;20044;-66
2022/01/27 08:12:44;;;;;;;7.45;3.88;;;;;;;;;;5068487;28;20044;-65
2022/01/27 08:15:11;;;;;;;7.50;3.90;;;;;;;;;;5068200;28;20143;-65
2022/01/27 08:17:38;;;;;;;6.32;4.07;;;;;;;;;;5068342;28;20052;-66
2022/01/27 08:20:04;;;;;;;6.18;3.90;;;;;;;;;;5067116;28;20044;-65
2022/01/27 08:22:32;;;;;;;7.78;3.78;;;;;;;;;;5067037;28;20041;-65
2022/01/27 08:24:58;;;;;;;6.68;3.80;;;;;;;;;;5067991;28;20131;-65
2022/01/27 08:27:28;;;;;;;7.72;3.97;;;;;;;;;;5068395;28;20044;-66
2022/01/27 08:30:00;;;;;;;5.55;3.70;;;;;;;;;;5067380;28;20445;-65
2022/01/27 08:32:40;;;;;;;5.80;3.90;;;;;;;;;;5068143;28;20060;-65
2022/01/27 08:35:06;;;;;;;6.15;3.63;;;;;;;;;;5067711;28;20049;-66
2022/01/27 08:37:32;;;;;;;6.68;3.67;;;;;;;;;;5068382;28;20524;-67
2022/01/27 08:39:58;;;;;;;12.25;4.18;;;;;;;;;;5067045;28;20135;-68
2022/01/27 08:42:24;;;;;;;14.73;3.70;;;;;;;;;;5068146;28;20131;-69
2022/01/27 08:44:50;;;;;;;10.18;3.47;;;;;;;;;;5068052;28;20083;-67
2022/01/27 08:47:18;;;;;;;7.18;3.47;;;;;;;;;;5067567;28;20109;-67
2022/01/27 08:49:46;;;;;;;8.10;3.42;;;;;;;;;;5066532;28;20123;-67
2022/01/27 08:52:12;;;;;;;6.35;3.53;;;;;;;;;;5067979;28;20090;-69
2022/01/27 08:54:38;;;;;;;8.90;3.33;;;;;;;;;;5068103;28;20132;-70
2022/01/27 08:57:05;;;;;;;6.90;3.88;;;;;;;;;;5067674;28;20117;-69
2022/01/27 08:59:31;;;;;;;6.95;3.42;;;;;;;;;;5066599;28;20113;-68
2022/01/27 09:01:57;;;;;;;5.40;2.88;;;;;;;;;;5067071;28;20127;-69
2022/01/27 09:04:23;;;;;;;7.30;3.22;;;;;;;;;;5068057;28;20102;-69
2022/01/27 09:06:49;;;;;;;5.72;3.45;;;;;;;;;;5068139;28;20040;-70
2022/01/27 09:09:15;;;;;;;7.00;3.53;;;;;;;;;;5066758;28;20049;-69
2022/01/27 09:11:46;;;;;;;6.50;3.50;;;;;;;;;;5068198;28;20055;-69
2022/01/27 09:14:13;;;;;;;7.38;3.70;;;;;;;;;;5068339;28;20128;-70
2022/01/27 09:16:40;;;;;;;6.45;3.30;;;;;;;;;;5066653;28;20519;-69
2022/01/27 09:19:06;;;;;;;8.32;3.45;;;;;;;;;;5068012;28;20411;-70
2022/01/27 09:21:52;;;;;;;7.28;3.47;;;;;;;;;;5067150;28;20469;-68
2022/01/27 09:24:25;;;;;;;7.03;3.20;;;;;;;;;;5060178;28;20056;-69
2022/01/27 09:26:58;;;;;;;6.97;3.42;;;;;;;;;;5062408;28;20098;-68
2022/01/27 09:29:24;;;;;;;6.07;3.25;;;;;;;;;;5046386;28;20084;-68
2022/01/27 09:31:50;;;;;;;6.82;3.28;;;;;;;;;;5047701;28;20064;-68
2022/01/27 09:34:17;;;;;;;9.90;3.50;;;;;;;;;;5047373;28;20051;-68
2022/01/27 09:36:43;;;;;;;12.57;3.47;;;;;;;;;;5047843;28;20102;-67
2022/01/27 09:39:09;;;;;;;8.20;3.53;;;;;;;;;;5049324;28;20048;-69
2022/01/27 09:41:37;;;;;;;6.75;3.67;;;;;;;;;;5048835;28;20442;-70
2022/01/27 09:44:04;;;;;;;6.32;3.78;;;;;;;;;;5050079;28;20048;-70
2022/01/27 09:46:32;;;;;;;11.20;3.83;;;;;;;;;;5062674;28;20049;-70
2022/01/27 09:48:58;;;;;;;10.05;4.38;;;;;;;;;;5071412;28;20075;-70
2022/01/27 09:51:38;;;;;;;9.75;4.15;;;;;;;;;;5071456;28;20044;-70
2022/01/27 09:54:04;;;;;;;12.45;5.30;;;;;;;;;;5070079;28;20044;-70
2022/01/27 09:56:31;;;;;;;10.80;4.30;;;;;;;;;;5069691;28;20127;-70
2022/01/27 09:58:57;;;;;;;9.10;4.70;;;;;;;;;;5071163;28;20494;-69
2022/01/27 10:01:23;;;;;;;16.58;6.03;;;;;;;;;;5070968;28;20040;-68
2022/01/27 10:04:09;;;;;;;25.45;13.50;;;;;;;;;;5070933;28;20128;-68
2022/01/27 10:06:36;;;;;;;39.95;18.42;;;;;;;;;;5071187;28;20071;-70
2022/01/27 10:09:19;;;;;;;39.80;18.05;;;;;;;;;;5065361;28;20048;-69
2022/01/27 10:11:47;;;;;;;42.75;19.63;;;;;;;;;;5070586;28;20186;-69
2022/01/27 10:14:19;;;;;;;41.72;19.73;;;;;;;;;;5053011;28;20052;-69
2022/01/27 10:16:45;;;;;;;46.63;20.17;;;;;;;;;;5050583;28;20510;-70
2022/01/27 10:19:13;;;;;;;50.92;21.65;;;;;;;;;;5050778;28;20056;-70
2022/01/27 10:21:39;;;;;;;42.50;20.48;;;;;;;;;;5050926;28;20048;-70
2022/01/27 10:24:25;;;;;;;40.22;22.17;;;;;;;;;;5032764;28;20048;-70
2022/01/27 10:27:16;;;;;;;45.28;20.45;;;;;;;;;;5050363;28;20102;-70
2022/01/27 10:30:01;;;;;;;37.38;20.00;;;;;;;;;;5050822;28;20118;-70
2022/01/27 10:32:41;;;;;;;41.58;21.65;;;;;;;;;;5050754;28;20183;-70
2022/01/27 10:35:07;;;;;;;39.88;20.35;;;;;;;;;;5050149;28;20605;-70
2022/01/27 10:37:53;;;;;;;43.75;22.35;;;;;;;;;;5050788;28;20150;-70
2022/01/27 10:40:27;;;;;;;44.28;21.38;;;;;;;;;;5048965;28;20554;-70
2022/01/27 10:43:12;;;;;;;42.63;19.83;;;;;;;;;;5050657;28;20083;-70
2022/01/27 10:45:41;;;;;;;41.42;20.48;;;;;;;;;;5050004;28;20095;-70
2022/01/27 10:48:15;;;;;;;38.70;20.52;;;;;;;;;;5050515;28;20107;-70
2022/01/27 10:51:16;;;;;;;43.28;20.38;;;;;;;;;;5048731;28;20053;-70
2022/01/27 10:53:49;;;;;;;35.80;19.55;;;;;;;;;;5049156;28;20049;-70
2022/01/27 10:56:15;;;;;;;;;;;;;;;;;;5050701;28;20049;-70
2022/01/27 10:58:42;;;;;;;32.70;16.95;;;;;;;;;;5049829;28;19927;-70
2022/01/27 11:01:08;;;;;;;38.50;18.83;;;;;;;;;;5049612;28;20049;-70
2022/01/27 11:03:35;;;;;;;35.10;17.60;;;;;;;;;;5046198;28;20081;-70
2022/01/27 11:06:09;;;;;;;33.50;18.42;;;;;;;;;;5049813;28;20091;-70
2022/01/27 11:08:37;;;;;;;35.70;16.95;;;;;;;;;;5048702;28;20048;-70
2022/01/27 11:11:04;;;;;;;30.02;16.73;;;;;;;;;;5049541;28;20052;-70
2022/01/27 11:13:33;;;;;;;34.40;16.95;;;;;;;;;;5065520;28;20048;-70
2022/01/27 11:16:00;;;;;;;30.52;16.63;;;;;;;;;;5069439;28;20048;-70
2022/01/27 11:18:28;;;;;;;28.98;15.82;;;;;;;;;;5068446;28;20059;-70
2022/01/27 11:20:59;;;;;;;28.92;15.65;;;;;;;;;;5069656;28;20056;-70
2022/01/27 11:23:59;;;;;;;27.08;15.27;;;;;;;;;;5069942;28;20046;-70
2022/01/27 11:26:25;;;;;;;30.15;15.25;;;;;;;;;;5068593;28;20054;-70
2022/01/27 11:28:51;;;;;;;29.67;15.30;;;;;;;;;;5069449;28;20075;-70
2022/01/27 11:31:45;;;;;;;29.25;14.18;;;;;;;;;;5069597;28;20403;-70
2022/01/27 11:34:11;;;;;;;29.52;15.00;;;;;;;;;;5069637;28;20461;-70
2022/01/27 11:36:38;;;;;;;26.67;14.30;;;;;;;;;;5068858;28;20083;-70
2022/01/27 11:39:10;;;;;;;28.70;14.70;;;;;;;;;;5051287;28;20044;-70
2022/01/27 11:41:47;;;;;;;26.08;13.88;;;;;;;;;;5064965;28;20081;-70
2022/01/27 11:44:21;;;;;;;25.85;13.07;;;;;;;;;;5048204;28;20129;-70
2022/01/27 11:47:10;;;;;;;26.00;14.13;;;;;;;;;;5049231;28;20124;-70
2022/01/27 11:49:36;;;;;;;;;;;;;;;;;;5049109;28;20052;-70
2022/01/27 11:52:22;;;;;;;24.77;12.38;;;;;;;;;;5049114;28;19921;-70
2022/01/27 11:54:48;;;;;;;23.48;13.05;;;;;;;;;;5049359;28;20422;-70
2022/01/27 11:57:33;;;;;;;24.05;13.15;;;;;;;;;;5049052;28;20055;-70
2022/01/27 12:00:12;;;;;;;22.27;12.77;;;;;;;;;;5049002;28;20041;-69
2022/01/27 12:02:57;;;;;;;21.70;12.05;;;;;;;;;;5048595;28;20081;-70
2022/01/27 12:05:26;;;;;;;24.13;12.48;;;;;;;;;;5049070;28;20037;-70
2022/01/27 12:08:11;;;;;;;23.10;11.23;;;;;;;;;;5048091;28;20171;-70
2022/01/27 12:10:47;;;;;;;22.88;11.27;;;;;;;;;;5048547;28;20081;-71
2022/01/27 12:19:04;;;;;;;20.88;11.23;;;;;;;;;;5047308;28;20048;-70
2022/01/27 12:21:40;;;;;;;19.35;9.68;;;;;;;;;;5047518;28;20130;-70
2022/01/27 12:24:17;;;;;;;18.63;10.32;;;;;;;;;;5048150;28;20072;-70
2022/01/27 12:26:54;;;;;;;17.52;9.93;;;;;;;;;;5047141;28;20091;-70
2022/01/27 12:29:22;;;;;;;21.80;10.27;;;;;;;;;;5056929;28;20097;-70
2022/01/27 12:31:49;;;;;;;17.58;9.38;;;;;;;;;;5047882;28;20526;-70
2022/01/27 12:34:15;;;;;;;21.02;10.73;;;;;;;;;;5048458;28;20045;-70
2022/01/27 12:37:12;;;;;;;16.70;9.50;;;;;;;;;;5030354;28;20122;-70
2022/01/27 12:39:42;;;;;;;18.98;9.48;;;;;;;;;;5042539;28;20414;-71
2022/01/27 12:42:12;;;;;;;19.63;9.27;;;;;;;;;;5048511;28;20053;-70
2022/01/27 12:44:41;;;;;;;17.17;8.77;;;;;;;;;;5048018;28;20393;-70
2022/01/27 12:47:08;;;;;;;18.05;9.57;;;;;;;;;;5048382;28;20061;-70
2022/01/27 12:49:43;;;;;;;18.05;9.18;;;;;;;;;;5047752;28;20507;-69
2022/01/27 12:52:11;;;;;;;18.10;8.65;;;;;;;;;;5046864;28;20110;-70
2022/01/27 12:54:37;;;;;;;16.30;9.02;;;;;;;;;;5048277;28;20364;-70
2022/01/27 12:57:04;;;;;;;18.42;9.15;;;;;;;;;;5048233;28;20041;-70
2022/01/27 12:59:31;;;;;;;14.77;8.18;;;;;;;;;;5048090;28;20127;-70
2022/01/27 13:01:58;;;;;;;15.95;8.38;;;;;;;;;;5046251;28;20041;-70
2022/01/27 13:04:25;;;;;;;16.80;8.10;;;;;;;;;;5047097;28;20045;-70
2022/01/27 13:06:55;;;;;;;18.45;8.80;;;;;;;;;;5047790;28;20052;-70
2022/01/27 13:09:21;;;;;;;15.82;8.27;;;;;;;;;;5048256;28;20087;-69
2022/01/27 13:11:50;;;;;;;17.30;8.27;;;;;;;;;;5047454;28;20118;-70
2022/01/27 13:14:16;;;;;;;17.38;8.35;;;;;;;;;;5047994;28;20122;-70
2022/01/27 13:16:46;;;;;;;17.10;7.80;;;;;;;;;;5054164;28;20040;-69
2022/01/27 13:19:31;;;;;;;19.10;7.88;;;;;;;;;;5052076;28;20052;-70
2022/01/27 13:22:04;;;;;;;15.63;7.82;;;;;;;;;;5051763;28;21714;-70
2022/01/27 13:24:35;;;;;;;14.55;7.13;;;;;;;;;;5050499;28;20558;-69
2022/01/27 13:27:12;;;;;;;15.05;7.35;;;;;;;;;;5052211;28;20421;-70
2022/01/27 13:29:39;;;;;;;13.93;7.15;;;;;;;;;;5051990;28;20067;-70
2022/01/27 13:32:06;;;;;;;14.70;7.38;;;;;;;;;;5056339;28;20080;-70
2022/01/27 13:34:33;;;;;;;13.02;6.72;;;;;;;;;;5069267;28;20458;-69
2022/01/27 13:37:00;;;;;;;14.73;6.93;;;;;;;;;;5068720;28;20098;-69
2022/01/27 13:41:53;;;;;;;13.85;6.53;;;;;;;;;;5070433;28;20098;-69
2022/01/27 13:44:19;;;;;;;23.08;7.47;;;;;;;;;;5070916;28;20135;-68
2022/01/27 13:46:49;;;;;;;14.48;5.97;;;;;;;;;;5060912;28;20072;-69
2022/01/27 13:49:20;;;;;;;11.60;5.80;;;;;;;;;;5050922;28;20052;-69
2022/01/27 13:51:54;;;;;;;12.95;5.90;;;;;;;;;;5051620;28;20147;-69
2022/01/27 13:54:22;;;;;;;13.88;5.85;;;;;;;;;;5049044;28;20095;-69
2022/01/27 13:56:50;;;;;;;20.42;5.82;;;;;;;;;;5050945;28;20112;-68
2022/01/27 13:59:19;;;;;;;17.20;5.72;;;;;;;;;;5050997;28;20512;-68
2022/01/27 14:01:46;;;;;;;15.05;6.03;;;;;;;;;;5049454;28;20056;-68
2022/01/27 14:04:13;;;;;;;15.18;5.40;;;;;;;;;;5050485;28;20422;-69
2022/01/27 14:06:48;;;;;;;14.18;6.22;;;;;;;;;;5066763;28;20600;-69
2022/01/27 14:09:15;;;;;;;16.15;6.25;;;;;;;;;;5070849;28;20071;-69
2022/01/27 14:11:41;;;;;;;12.90;5.72;;;;;;;;;;5070523;28;20044;-68
2022/01/27 14:14:08;;;;;;;12.85;5.63;;;;;;;;;;5069209;28;20099;-69
2022/01/27 14:16:34;;;;;;;12.60;5.75;;;;;;;;;;5070281;28;20055;-68
2022/01/27 14:19:11;;;;;;;11.77;5.47;;;;;;;;;;5070094;28;20064;-68
2022/01/27 14:21:41;;;;;;;14.30;5.55;;;;;;;;;;5069675;28;20145;-69
2022/01/27 14:24:13;;;;;;;13.57;5.55;;;;;;;;;;5069584;28;20048;-69
2022/01/27 14:26:41;;;;;;;12.82;5.38;;;;;;;;;;5053076;28;20051;-69
2022/01/27 14:29:10;;;;;;;13.25;5.75;;;;;;;;;;5068067;28;20399;-69
2022/01/27 14:31:37;;;;;;;11.75;5.20;;;;;;;;;;5070218;28;20087;-69
2022/01/27 14:34:03;;;;;;;13.82;5.30;;;;;;;;;;5070595;28;20048;-69
2022/01/27 14:36:30;;;;;;;10.98;4.68;;;;;;;;;;5070676;28;20048;-73
2022/01/27 14:38:56;;;;;;;12.10;5.40;;;;;;;;;;5069783;28;20048;-68
2022/01/27 14:41:22;;;;;;;12.23;5.43;;;;;;;;;;5052508;28;20037;-69
2022/01/27 14:43:48;;;;;;;12.65;5.57;;;;;;;;;;5069717;28;20049;-69
2022/01/27 14:46:21;;;;;;;12.93;4.78;;;;;;;;;;5068955;28;20226;-69
2022/01/27 14:48:53;;;;;;;15.27;6.25;;;;;;;;;;5069138;28;20120;-68
2022/01/27 14:51:20;;;;;;;12.38;4.97;;;;;;;;;;5070178;28;20470;-68
2022/01/27 14:53:46;;;;;;;11.18;4.82;;;;;;;;;;5065714;28;20410;-69
2022/01/27 14:56:12;;;;;;;10.45;5.25;;;;;;;;;;5068113;28;20414;-69
2022/01/27 14:58:38;;;;;;;9.88;4.70;;;;;;;;;;5067448;28;20436;-69
2022/01/27 15:01:04;;;;;;;12.43;5.88;;;;;;;;;;5067762;28;20079;-69
2022/01/27 15:03:31;;;;;;;10.82;5.07;;;;;;;;;;5069232;28;20480;-69
2022/01/27 15:05:57;;;;;;;8.93;5.00;;;;;;;;;;5069403;28;20101;-69
2022/01/27 15:08:23;;;;;;;10.13;4.72;;;;;;;;;;5068866;28;20045;-67
2022/01/27 15:10:49;;;;;;;10.18;4.43;;;;;;;;;;5068057;28;20409;-68
2022/01/27 15:13:16;;;;;;;10.05;4.35;;;;;;;;;;5051701;28;20057;-68
2022/01/27 15:21:12;;;;;;;9.68;4.13;;;;;;;;;;5068573;28;20151;-68
2022/01/27 15:23:38;;;;;;;10.57;4.43;;;;;;;;;;5068034;28;20044;-68
2022/01/27 15:26:05;;;;;;;11.55;4.57;;;;;;;;;;5069078;28;20037;-67
2022/01/27 15:28:31;;;;;;;8.57;4.43;;;;;;;;;;5067217;28;20079;-68
2022/01/27 15:31:01;;;;;;;8.40;3.60;;;;;;;;;;5068365;28;20053;-72
2022/01/27 15:33:29;;;;;;;16.15;4.50;;;;;;;;;;5068995;28;20062;-67
2022/01/27 15:35:55;;;;;;;12.18;4.15;;;;;;;;;;5068128;28;20044;-68
2022/01/27 15:38:23;;;;;;;8.40;4.10;;;;;;;;;;5068977;28;20490;-68